CheckWX is a tool to help pilots better visualize weather data.  It is not intended as a substitute for an official pre-flight weather briefing.

00:51:20 UTC

EDDT METAR
Berlin-Tegel International Airport
Berlin, Germany
Current

31 mins ago

EDDT 260020Z 29005KT 9999 FEW022 02/01 Q1023
Observed
Mar-26 @ 00:20 UTC
Wind
  • 290° at 5 KTS
Visibility
10,000+ meters
Flight Rules
VFR
Cloud Levels
  • Few at 2,200' AGL
Temperature
C / 36°F
Dewpoint
C / 34°F
Humidity
93%
Altimeter
30.21" Hg
Pressure
1022.92 hPa
Previous

1 hour ago

EDDT 252350Z 28005KT 9999 BKN022 03/01 Q1023
Observed
Mar-25 @ 23:50 UTC
Wind
  • 280° at 5 KTS
Visibility
10,000+ meters
Flight Rules
MVFR
Cloud Levels
  • Broken at 2,200' AGL
Temperature
C / 37°F
Dewpoint
C / 34°F
Humidity
87%
Altimeter
30.21" Hg
Pressure
1022.92 hPa
Previous

2 hours ago

EDDT 252320Z 29005KT 9999 BKN022 02/01 Q1023
Observed
Mar-25 @ 23:20 UTC
Wind
  • 290° at 5 KTS
Visibility
10,000+ meters
Flight Rules
MVFR
Cloud Levels
  • Broken at 2,200' AGL
Temperature
C / 36°F
Dewpoint
C / 34°F
Humidity
93%
Altimeter
30.21" Hg
Pressure
1022.92 hPa